createdAt,value
2019-01-19T00:01:31.072Z,-0.40
2019-01-19T00:04:14.163Z,-0.50
2019-01-19T00:06:56.814Z,-0.50
2019-01-19T00:09:42.026Z,-0.50
2019-01-19T00:12:27.424Z,-0.60
2019-01-19T00:15:10.995Z,-0.60
2019-01-19T00:17:54.678Z,-0.60
2019-01-19T00:20:37.482Z,-0.60
2019-01-19T00:23:20.547Z,-0.60
2019-01-19T00:26:03.358Z,-0.60
2019-01-19T00:28:45.870Z,-0.60
2019-01-19T00:31:28.589Z,-0.60
2019-01-19T00:34:12.155Z,-0.60
2019-01-19T00:36:55.614Z,-0.60
2019-01-19T00:39:40.004Z,-0.60
2019-01-19T00:42:23.295Z,-0.60
2019-01-19T00:45:06.543Z,-0.70
2019-01-19T00:47:49.917Z,-0.70
2019-01-19T00:50:34.053Z,-0.80
2019-01-19T00:53:18.966Z,-0.80
2019-01-19T00:56:03.733Z,-0.80
2019-01-19T00:58:46.624Z,-0.80
2019-01-19T01:01:30.031Z,-0.90
2019-01-19T01:04:16.605Z,-0.90
2019-01-19T01:07:00.006Z,-0.90
2019-01-19T01:09:45.467Z,-0.90
2019-01-19T01:12:29.063Z,-1.00
2019-01-19T01:15:13.981Z,-1.00
2019-01-19T01:17:56.676Z,-1.00
2019-01-19T01:20:41.170Z,-1.00
2019-01-19T01:23:24.612Z,-1.00
2019-01-19T01:26:09.900Z,-1.00
2019-01-19T01:28:52.618Z,-1.00
2019-01-19T01:31:37.776Z,-1.00
2019-01-19T01:34:23.161Z,-1.00
2019-01-19T01:37:06.750Z,-1.10
2019-01-19T01:39:50.325Z,-1.10
2019-01-19T01:42:33.809Z,-1.10
2019-01-19T01:45:17.260Z,-1.10
2019-01-19T01:48:00.017Z,-1.20
2019-01-19T01:50:43.402Z,-1.20
2019-01-19T01:53:27.216Z,-1.20
2019-01-19T01:56:10.629Z,-1.30
2019-01-19T01:58:53.816Z,-1.30
2019-01-19T02:01:36.933Z,-1.30
2019-01-19T02:04:20.215Z,-1.30
2019-01-19T02:07:04.430Z,-1.40
2019-01-19T02:09:48.678Z,-1.40
2019-01-19T02:12:31.670Z,-1.40
2019-01-19T02:15:14.577Z,-1.40
2019-01-19T02:17:58.568Z,-1.40
2019-01-19T02:20:41.972Z,-1.50
2019-01-19T02:23:25.403Z,-1.50
2019-01-19T02:26:10.706Z,-1.50
2019-01-19T02:28:55.135Z,-1.50
2019-01-19T02:31:37.846Z,-1.60
2019-01-19T02:34:21.163Z,-1.60
2019-01-19T02:37:04.613Z,-1.70
2019-01-19T02:39:49.039Z,-1.70
2019-01-19T02:42:32.112Z,-1.70
2019-01-19T02:45:15.136Z,-1.70
2019-01-19T02:47:57.985Z,-1.70
2019-01-19T02:50:40.913Z,-1.70
2019-01-19T02:53:26.093Z,-1.70
2019-01-19T02:56:11.004Z,-1.70
2019-01-19T02:58:57.728Z,-1.80
2019-01-19T03:01:40.314Z,-1.80
2019-01-19T03:04:26.009Z,-1.80
2019-01-19T03:07:08.877Z,-1.80
2019-01-19T03:09:52.121Z,-1.80
2019-01-19T03:12:34.827Z,-1.90
2019-01-19T03:15:17.397Z,-1.90
2019-01-19T03:18:01.196Z,-1.90
2019-01-19T03:20:43.946Z,-1.90
2019-01-19T03:23:26.847Z,-1.90
2019-01-19T03:26:11.398Z,-1.90
2019-01-19T03:28:54.868Z,-2.00
2019-01-19T03:34:22.704Z,-2.00
2019-01-19T03:37:05.437Z,-2.00
2019-01-19T03:39:48.683Z,-2.00
2019-01-19T03:42:31.377Z,-2.00
2019-01-19T03:45:14.678Z,-2.10
2019-01-19T03:47:58.033Z,-2.10
2019-01-19T03:50:41.505Z,-2.10
2019-01-19T03:53:27.775Z,-2.10
2019-01-19T03:56:11.471Z,-2.10
2019-01-19T03:58:54.305Z,-2.10
2019-01-19T04:01:39.772Z,-2.10
2019-01-19T04:04:49.203Z,-2.10
2019-01-19T04:07:31.779Z,-2.10
2019-01-19T04:10:14.434Z,-2.10
2019-01-19T04:12:57.334Z,-2.10
2019-01-19T04:15:40.682Z,-2.20
2019-01-19T04:18:25.143Z,-2.20
2019-01-19T04:21:08.001Z,-2.10
2019-01-19T04:23:52.298Z,-2.20
2019-01-19T04:26:35.456Z,-2.20
2019-01-19T04:29:18.501Z,-2.20
2019-01-19T04:32:01.788Z,-2.20
2019-01-19T04:34:44.692Z,-2.20
2019-01-19T04:37:28.182Z,-2.20
2019-01-19T04:40:12.439Z,-2.20
2019-01-19T04:42:55.566Z,-2.20
2019-01-19T04:45:38.180Z,-2.20
2019-01-19T04:48:22.636Z,-2.20
2019-01-19T04:51:06.540Z,-2.20
2019-01-19T04:53:51.581Z,-2.20
2019-01-19T04:56:35.034Z,-2.20
2019-01-19T04:59:17.835Z,-2.20
2019-01-19T05:02:00.877Z,-2.20
2019-01-19T05:04:45.123Z,-2.20
2019-01-19T05:07:28.510Z,-2.20
2019-01-19T05:10:11.904Z,-2.20
2019-01-19T05:12:56.662Z,-2.20
2019-01-19T05:15:39.592Z,-2.20
2019-01-19T05:18:22.966Z,-2.30
2019-01-19T05:21:06.701Z,-2.30
2019-01-19T05:23:49.628Z,-2.30
2019-01-19T05:26:32.840Z,-2.30
2019-01-19T05:29:15.772Z,-2.30
2019-01-19T05:31:58.476Z,-2.30
2019-01-19T05:34:43.495Z,-2.30
2019-01-19T05:37:26.696Z,-2.30
2019-01-19T05:40:09.386Z,-2.30
2019-01-19T05:42:52.892Z,-2.40
2019-01-19T05:45:36.089Z,-2.40
2019-01-19T05:48:19.374Z,-2.40
2019-01-19T05:51:04.264Z,-2.40
2019-01-19T05:53:46.907Z,-2.40
2019-01-19T05:56:31.332Z,-2.40
2019-01-19T05:59:14.193Z,-2.40
2019-01-19T06:01:57.425Z,-2.40
2019-01-19T06:04:40.397Z,-2.40
2019-01-19T06:07:23.596Z,-2.40
2019-01-19T06:10:06.593Z,-2.40
2019-01-19T06:12:49.383Z,-2.40
2019-01-19T06:15:33.301Z,-2.50
2019-01-19T06:18:16.210Z,-2.50
2019-01-19T06:21:00.102Z,-2.50
2019-01-19T06:23:42.908Z,-2.50
2019-01-19T06:26:25.919Z,-2.60
2019-01-19T06:29:09.379Z,-2.60
2019-01-19T06:31:53.028Z,-2.60
2019-01-19T06:34:38.229Z,-2.50
2019-01-19T06:37:21.261Z,-2.50
2019-01-19T06:40:04.423Z,-2.50
2019-01-19T06:42:47.279Z,-2.40
2019-01-19T06:45:29.756Z,-2.40
2019-01-19T06:48:12.436Z,-2.40
2019-01-19T06:50:57.003Z,-2.30
2019-01-19T06:53:42.156Z,-2.20
2019-01-19T06:56:27.384Z,-2.20
2019-01-19T06:59:17.316Z,-2.10
2019-01-19T07:01:56.584Z,-1.90
2019-01-19T07:04:39.642Z,-1.80
2019-01-19T07:07:24.637Z,-1.70
2019-01-19T07:10:09.682Z,-1.70
2019-01-19T07:12:53.064Z,-1.60
2019-01-19T07:15:35.602Z,-1.50
2019-01-19T07:18:21.135Z,-1.30
2019-01-19T07:21:04.066Z,-1.20
2019-01-19T07:23:48.209Z,-1.20
2019-01-19T07:26:32.039Z,-1.10
2019-01-19T07:29:17.136Z,-1.10
2019-01-19T07:32:02.572Z,-1.10
2019-01-19T07:34:45.168Z,-1.00
2019-01-19T07:37:29.235Z,-0.90
2019-01-19T07:40:11.914Z,-0.90
2019-01-19T07:43:01.271Z,-0.80
2019-01-19T07:46:06.311Z,-0.70
2019-01-19T07:48:49.309Z,-0.50
2019-01-19T07:51:32.112Z,-0.30
2019-01-19T07:54:15.999Z,-0.10
2019-01-19T07:57:02.516Z,0.10
2019-01-19T07:59:45.721Z,0.20
2019-01-19T08:02:28.736Z,0.40
2019-01-19T08:05:12.223Z,0.70
2019-01-19T08:07:55.178Z,1.10
2019-01-19T08:10:38.320Z,1.40
2019-01-19T08:13:21.047Z,1.60
2019-01-19T08:16:03.988Z,1.80
2019-01-19T08:21:29.442Z,2.00
2019-01-19T08:24:12.296Z,2.20
2019-01-19T08:26:55.649Z,2.50
2019-01-19T08:29:39.264Z,3.00
2019-01-19T08:32:23.182Z,4.10
2019-01-19T08:35:07.961Z,4.60
2019-01-19T08:37:50.869Z,5.40
2019-01-19T08:40:33.626Z,6.20
2019-01-19T08:46:21.276Z,7.10
2019-01-19T08:49:06.600Z,7.80
2019-01-19T08:51:49.371Z,7.80
2019-01-19T08:54:34.384Z,7.60
2019-01-19T08:57:17.740Z,7.60
2019-01-19T09:00:00.688Z,8.00
2019-01-19T09:02:46.282Z,8.40
2019-01-19T09:05:29.333Z,8.50
2019-01-19T09:08:12.901Z,8.60
2019-01-19T09:10:55.489Z,9.10
2019-01-19T09:13:39.578Z,9.90
2019-01-19T09:16:24.665Z,11.20
2019-01-19T09:18:56.185Z,11.90
2019-01-19T09:21:46.614Z,12.20
2019-01-19T09:24:30.346Z,11.90
2019-01-19T09:27:17.005Z,11.90
2019-01-19T09:30:00.238Z,12.40
2019-01-19T09:32:43.259Z,13.40
2019-01-19T09:35:25.954Z,13.80
2019-01-19T09:38:10.585Z,13.70
2019-01-19T09:40:53.689Z,13.50
2019-01-19T09:43:36.823Z,12.80
2019-01-19T09:46:20.707Z,11.90
2019-01-19T09:49:03.996Z,11.10
2019-01-19T09:51:48.361Z,10.60
2019-01-19T09:54:33.474Z,10.30
2019-01-19T09:57:17.529Z,10.00
2019-01-19T10:00:02.213Z,9.70
2019-01-19T10:02:47.461Z,9.40
2019-01-19T10:05:33.260Z,9.30
2019-01-19T10:08:15.880Z,9.10
2019-01-19T10:11:00.993Z,9.30
2019-01-19T10:13:44.158Z,9.90
2019-01-19T10:16:28.780Z,10.50
2019-01-19T10:19:11.638Z,11.10
2019-01-19T10:21:55.226Z,12.10
2019-01-19T10:24:38.160Z,13.80
2019-01-19T10:27:23.685Z,15.00
2019-01-19T10:30:06.270Z,15.90
2019-01-19T10:32:51.207Z,15.70
2019-01-19T10:35:36.410Z,15.10
2019-01-19T10:38:19.960Z,15.20
2019-01-19T10:41:02.685Z,16.30
2019-01-19T10:43:47.484Z,16.90
2019-01-19T10:46:30.937Z,17.00
2019-01-19T10:49:16.085Z,16.40
2019-01-19T10:51:59.610Z,15.50
2019-01-19T10:54:44.498Z,14.50
2019-01-19T10:57:28.226Z,13.30
2019-01-19T11:00:11.407Z,12.00
2019-01-19T11:02:54.187Z,10.70
2019-01-19T11:05:39.352Z,9.20
2019-01-19T11:08:24.028Z,7.90
2019-01-19T11:11:10.964Z,7.90
2019-01-19T11:13:54.537Z,7.20
2019-01-19T11:16:39.167Z,6.90
2019-01-19T11:19:24.376Z,6.60
2019-01-19T11:22:09.318Z,6.30
2019-01-19T11:24:52.682Z,5.80
2019-01-19T11:27:36.118Z,5.50
2019-01-19T11:30:19.001Z,5.20
2019-01-19T11:33:01.885Z,5.00
2019-01-19T11:35:45.803Z,4.70
2019-01-19T11:38:31.492Z,4.40
2019-01-19T11:41:14.623Z,4.20
2019-01-19T11:43:57.861Z,4.10
2019-01-19T11:46:41.882Z,4.00
2019-01-19T11:49:27.483Z,3.80
2019-01-19T11:52:10.501Z,3.60
2019-01-19T11:54:53.909Z,3.50
2019-01-19T11:57:36.949Z,3.40
2019-01-19T12:00:19.456Z,3.40
2019-01-19T12:03:03.364Z,3.40
2019-01-19T12:05:46.820Z,3.50
2019-01-19T12:08:30.049Z,3.50
2019-01-19T12:11:12.971Z,3.60
2019-01-19T12:13:56.693Z,3.60
2019-01-19T12:16:39.601Z,3.50
2019-01-19T12:19:22.519Z,3.40
2019-01-19T12:22:05.475Z,3.30
2019-01-19T12:24:48.098Z,3.20
2019-01-19T12:27:33.111Z,3.10
2019-01-19T12:30:19.369Z,3.10
2019-01-19T12:33:02.819Z,3.00
2019-01-19T12:35:46.402Z,3.00
2019-01-19T12:38:29.726Z,2.90
2019-01-19T12:41:13.059Z,2.90
2019-01-19T12:43:56.101Z,3.00
2019-01-19T12:46:39.508Z,3.00
2019-01-19T12:49:24.814Z,3.00
2019-01-19T12:52:09.715Z,3.00
2019-01-19T12:54:54.725Z,3.10
2019-01-19T12:57:39.510Z,3.10
2019-01-19T13:00:22.784Z,3.20
2019-01-19T13:03:06.411Z,3.20
2019-01-19T13:05:49.150Z,3.20
2019-01-19T13:08:34.519Z,3.10
2019-01-19T13:11:18.166Z,3.10
2019-01-19T13:14:03.420Z,3.10
2019-01-19T13:16:46.366Z,3.00
2019-01-19T13:19:27.972Z,3.00
2019-01-19T13:22:11.242Z,3.00
2019-01-19T13:24:54.371Z,3.00
2019-01-19T13:27:39.340Z,2.90
2019-01-19T13:30:22.056Z,2.90
2019-01-19T13:33:05.361Z,2.90
2019-01-19T13:35:48.913Z,2.80
2019-01-19T13:38:31.828Z,2.80
2019-01-19T13:41:14.810Z,2.70
2019-01-19T13:43:57.999Z,2.70
2019-01-19T13:46:41.490Z,2.70
2019-01-19T13:49:24.534Z,2.50
2019-01-19T13:52:07.118Z,2.50
2019-01-19T13:54:53.752Z,2.30
2019-01-19T13:57:36.457Z,2.20
2019-01-19T14:00:20.975Z,2.20
2019-01-19T14:03:04.476Z,2.10
2019-01-19T14:05:49.216Z,2.10
2019-01-19T14:08:32.675Z,2.00
2019-01-19T14:11:17.659Z,2.00
2019-01-19T14:14:01.022Z,1.90
2019-01-19T14:16:43.631Z,1.90
2019-01-19T14:19:27.764Z,1.90
2019-01-19T14:22:12.597Z,1.90
2019-01-19T14:24:56.626Z,1.80
2019-01-19T14:27:42.224Z,1.70
2019-01-19T14:30:24.843Z,1.60
2019-01-19T14:33:07.818Z,1.60
2019-01-19T14:35:52.042Z,1.60
2019-01-19T14:38:37.515Z,1.60
2019-01-19T14:41:20.671Z,1.50
2019-01-19T14:44:03.613Z,1.50
2019-01-19T14:46:46.468Z,1.40
2019-01-19T14:49:29.248Z,1.40
2019-01-19T14:52:13.244Z,1.40
2019-01-19T14:54:58.402Z,1.40
2019-01-19T14:57:42.101Z,1.30
2019-01-19T15:00:25.766Z,1.30
2019-01-19T15:03:08.639Z,1.30
2019-01-19T15:05:54.012Z,1.30
2019-01-19T15:08:38.992Z,1.20
2019-01-19T15:11:23.938Z,1.20
2019-01-19T15:14:06.842Z,1.20
2019-01-19T15:16:51.557Z,1.20
2019-01-19T15:19:34.305Z,1.10
2019-01-19T15:22:17.276Z,1.10
2019-01-19T15:25:00.263Z,1.10
2019-01-19T15:27:43.729Z,1.10
2019-01-19T15:30:27.171Z,1.10
2019-01-19T15:33:12.255Z,1.10
2019-01-19T15:35:55.570Z,1.00
2019-01-19T15:38:38.537Z,1.00
2019-01-19T15:41:21.233Z,1.00
2019-01-19T15:44:07.077Z,0.90
2019-01-19T15:46:52.190Z,0.90
2019-01-19T15:49:39.001Z,0.80
2019-01-19T15:52:25.229Z,0.70
2019-01-19T15:55:08.236Z,0.70
2019-01-19T15:57:51.053Z,0.70
2019-01-19T16:00:34.080Z,0.60
2019-01-19T16:03:16.619Z,0.60
2019-01-19T16:06:01.834Z,0.60
2019-01-19T16:08:45.169Z,0.60
2019-01-19T16:11:28.096Z,0.60
2019-01-19T16:14:11.514Z,0.60
2019-01-19T16:17:21.019Z,0.50
2019-01-19T16:20:04.014Z,0.60
2019-01-19T16:22:49.555Z,0.60
2019-01-19T16:25:32.295Z,0.60
2019-01-19T16:28:17.064Z,0.50
2019-01-19T16:31:02.356Z,0.50
2019-01-19T16:33:45.797Z,0.50
2019-01-19T16:36:28.631Z,0.40
2019-01-19T16:39:13.447Z,0.40
2019-01-19T16:41:58.608Z,0.40
2019-01-19T16:44:43.360Z,0.40
2019-01-19T16:47:26.734Z,0.50
2019-01-19T16:50:10.561Z,0.50
2019-01-19T16:52:53.588Z,0.50
2019-01-19T16:55:39.576Z,0.50
2019-01-19T16:58:25.466Z,0.50
2019-01-19T17:01:09.006Z,0.50
2019-01-19T17:03:52.865Z,0.40
2019-01-19T17:06:37.826Z,0.40
2019-01-19T17:09:20.518Z,0.40
2019-01-19T17:12:05.478Z,0.40
2019-01-19T17:14:48.225Z,0.40
2019-01-19T17:17:33.616Z,0.40
2019-01-19T17:20:16.325Z,0.40
2019-01-19T17:23:01.702Z,0.30
2019-01-19T17:25:44.969Z,0.30
2019-01-19T17:28:28.152Z,0.30
2019-01-19T17:31:11.366Z,0.30
2019-01-19T17:33:58.194Z,0.30
2019-01-19T17:36:41.266Z,0.20
2019-01-19T17:39:24.714Z,0.20
2019-01-19T17:42:09.157Z,0.20
2019-01-19T17:44:53.546Z,0.20
2019-01-19T17:47:36.389Z,0.20
2019-01-19T17:50:19.711Z,0.20
2019-01-19T17:53:02.439Z,0.20
2019-01-19T17:55:45.474Z,0.20
2019-01-19T17:58:29.009Z,0.20
2019-01-19T18:01:14.523Z,0.10
2019-01-19T18:03:58.096Z,0.20
2019-01-19T18:06:40.786Z,0.10
2019-01-19T18:09:24.088Z,0.10
2019-01-19T18:12:07.190Z,0.10
2019-01-19T18:14:50.128Z,0.20
2019-01-19T18:17:33.200Z,0.20
2019-01-19T18:20:16.134Z,0.20
2019-01-19T18:22:58.846Z,0.20
2019-01-19T18:25:42.973Z,0.20
2019-01-19T18:28:26.705Z,0.20
2019-01-19T18:31:10.926Z,0.20
2019-01-19T18:33:53.910Z,0.20
2019-01-19T18:36:37.547Z,0.20
2019-01-19T18:39:20.767Z,0.30
2019-01-19T18:42:04.040Z,0.30
2019-01-19T18:44:48.917Z,0.30
2019-01-19T18:47:31.829Z,0.30
2019-01-19T18:50:15.024Z,0.30
2019-01-19T18:52:57.873Z,0.30
2019-01-19T18:55:40.591Z,0.30
2019-01-19T18:58:23.176Z,0.30
2019-01-19T19:01:05.895Z,0.30
2019-01-19T19:03:49.310Z,0.30
2019-01-19T19:06:31.970Z,0.30
2019-01-19T19:09:15.435Z,0.20
2019-01-19T19:11:58.870Z,0.20
2019-01-19T19:14:41.982Z,0.30
2019-01-19T19:17:27.089Z,0.20
2019-01-19T19:20:13.760Z,0.30
2019-01-19T19:22:57.429Z,0.20
2019-01-19T19:25:41.231Z,0.20
2019-01-19T19:28:26.025Z,0.20
2019-01-19T19:31:08.960Z,0.20
2019-01-19T19:33:52.703Z,0.30
2019-01-19T19:36:35.398Z,0.30
2019-01-19T19:39:21.762Z,0.30
2019-01-19T19:42:05.335Z,0.30
2019-01-19T19:44:48.311Z,0.20
2019-01-19T19:47:31.567Z,0.20
2019-01-19T19:50:14.508Z,0.20
2019-01-19T19:52:57.162Z,0.20
2019-01-19T19:55:41.814Z,0.20
2019-01-19T19:58:28.659Z,0.20
2019-01-19T20:01:13.298Z,0.20
2019-01-19T20:03:56.810Z,0.20
2019-01-19T20:06:40.180Z,0.20
2019-01-19T20:09:24.092Z,0.20
2019-01-19T20:12:07.921Z,0.20
2019-01-19T20:14:51.296Z,0.10
2019-01-19T20:17:34.399Z,0.10
2019-01-19T20:20:17.747Z,0.10
2019-01-19T20:23:02.475Z,0.10
2019-01-19T20:25:45.820Z,0.10
2019-01-19T20:28:28.449Z,0.10
2019-01-19T20:31:11.791Z,0.10
2019-01-19T20:33:57.024Z,0.10
2019-01-19T20:36:40.394Z,0.00
2019-01-19T20:39:23.101Z,0.00
2019-01-19T20:42:06.645Z,0.00
2019-01-19T20:44:49.716Z,0.00
2019-01-19T20:47:34.099Z,0.00
2019-01-19T20:50:19.577Z,-0.10
2019-01-19T20:53:02.525Z,-0.10
2019-01-19T20:55:46.576Z,-0.10
2019-01-19T20:58:29.445Z,-0.10
2019-01-19T21:01:12.557Z,-0.10
2019-01-19T21:03:56.422Z,-0.20
2019-01-19T21:06:39.068Z,-0.20
2019-01-19T21:09:22.297Z,-0.20
2019-01-19T21:12:04.924Z,-0.20
2019-01-19T21:14:50.568Z,-0.20
2019-01-19T21:17:33.659Z,-0.20
2019-01-19T21:20:17.045Z,-0.20
2019-01-19T21:23:00.242Z,-0.20
2019-01-19T21:25:45.756Z,-0.20
2019-01-19T21:28:29.021Z,-0.30
2019-01-19T21:31:12.519Z,-0.30
2019-01-19T21:33:57.483Z,-0.20
2019-01-19T21:36:41.280Z,-0.20
2019-01-19T21:39:23.997Z,-0.30
2019-01-19T21:42:07.444Z,-0.30
2019-01-19T21:44:50.604Z,-0.30
2019-01-19T21:47:33.243Z,-0.30
2019-01-19T21:50:18.385Z,-0.30
2019-01-19T21:53:01.820Z,-0.30
2019-01-19T21:55:44.987Z,-0.20
2019-01-19T21:58:28.443Z,-0.30
2019-01-19T22:01:13.915Z,-0.30
2019-01-19T22:03:56.941Z,-0.30
2019-01-19T22:09:30.585Z,-0.30
2019-01-19T22:12:15.528Z,-0.30
2019-01-19T22:14:58.881Z,-0.20
2019-01-19T22:17:43.570Z,-0.30
2019-01-19T22:20:26.413Z,-0.20
2019-01-19T22:23:09.761Z,-0.30
2019-01-19T22:25:53.244Z,-0.30
2019-01-19T22:28:37.347Z,-0.30
2019-01-19T22:31:20.731Z,-0.30
2019-01-19T22:34:05.303Z,-0.30
2019-01-19T22:36:49.254Z,-0.30
2019-01-19T22:39:32.685Z,-0.30
2019-01-19T22:42:15.710Z,-0.30
2019-01-19T22:44:59.160Z,-0.30
2019-01-19T22:47:42.901Z,-0.30
2019-01-19T22:50:26.242Z,-0.40
2019-01-19T22:53:09.132Z,-0.30
2019-01-19T22:55:54.242Z,-0.40
2019-01-19T22:58:38.074Z,-0.40
2019-01-19T23:01:21.346Z,-0.40
2019-01-19T23:04:04.191Z,-0.40
2019-01-19T23:06:48.318Z,-0.40
2019-01-19T23:09:31.189Z,-0.40
2019-01-19T23:12:14.178Z,-0.40
2019-01-19T23:14:57.337Z,-0.50
2019-01-19T23:17:40.569Z,-0.50
2019-01-19T23:20:24.066Z,-0.50
2019-01-19T23:23:08.816Z,-0.40
2019-01-19T23:25:52.352Z,-0.40
2019-01-19T23:28:35.666Z,-0.40
2019-01-19T23:31:18.826Z,-0.40
2019-01-19T23:34:02.082Z,-0.50
2019-01-19T23:36:44.935Z,-0.50
2019-01-19T23:39:28.424Z,-0.50
2019-01-19T23:42:11.439Z,-0.50
2019-01-19T23:44:54.183Z,-0.50
2019-01-19T23:47:36.849Z,-0.50
2019-01-19T23:50:20.045Z,-0.50
2019-01-19T23:53:03.532Z,-0.50
2019-01-19T23:55:46.606Z,-0.50
2019-01-19T23:58:29.359Z,-0.50
